createdAt,value
2022-09-06T00:02:47.391Z,12.23
2022-09-06T00:07:49.144Z,12.55
2022-09-06T00:12:50.817Z,13.48
2022-09-06T00:17:52.356Z,13.07
2022-09-06T00:23:05.754Z,12.63
2022-09-06T00:28:07.523Z,12.70
2022-09-06T00:33:09.211Z,12.90
2022-09-06T00:38:10.807Z,12.68
2022-09-06T00:43:12.473Z,13.40
2022-09-06T00:48:15.871Z,13.23
2022-09-06T00:53:18.875Z,12.95
2022-09-06T00:58:21.310Z,12.95
2022-09-06T01:03:25.202Z,12.95
2022-09-06T01:08:52.776Z,12.63
2022-09-06T01:14:08.052Z,11.52
2022-09-06T01:19:47.135Z,11.73
2022-09-06T01:25:22.431Z,11.38
2022-09-06T01:30:25.433Z,11.30
2022-09-06T01:35:30.798Z,11.73
2022-09-06T01:40:36.564Z,11.45
2022-09-06T01:46:07.614Z,11.40
2022-09-06T01:51:17.311Z,10.88
2022-09-06T01:56:31.705Z,11.23
2022-09-06T02:01:45.661Z,9.32
2022-09-06T02:06:52.838Z,11.02
2022-09-06T02:12:04.264Z,9.98
2022-09-06T02:17:08.856Z,11.00
2022-09-06T02:22:15.796Z,10.68
2022-09-06T02:27:17.541Z,9.63
2022-09-06T02:32:22.731Z,10.05
2022-09-06T02:37:28.213Z,9.63
2022-09-06T02:42:30.037Z,9.20
2022-09-06T02:47:31.812Z,9.70
2022-09-06T02:52:33.899Z,9.63
2022-09-06T02:57:35.989Z,9.30
2022-09-06T03:02:38.346Z,10.07
2022-09-06T03:07:40.245Z,9.65
2022-09-06T03:12:46.890Z,9.70
2022-09-06T03:17:49.304Z,9.82
2022-09-06T03:22:51.789Z,8.80
2022-09-06T03:27:53.406Z,9.70
2022-09-06T03:32:55.020Z,8.95
2022-09-06T03:37:56.838Z,9.13
2022-09-06T03:42:58.439Z,10.95
2022-09-06T03:48:00.069Z,9.93
2022-09-06T03:53:01.681Z,8.70
2022-09-06T03:58:03.277Z,8.93
2022-09-06T04:03:04.857Z,9.23
2022-09-06T04:08:06.826Z,8.95
2022-09-06T04:13:08.457Z,8.52
2022-09-06T04:18:10.138Z,8.95
2022-09-06T04:23:11.725Z,8.38
2022-09-06T04:28:13.592Z,8.95
2022-09-06T04:33:15.267Z,9.30
2022-09-06T04:38:17.066Z,9.63
2022-09-06T04:43:18.754Z,9.10
2022-09-06T04:48:20.347Z,9.27
2022-09-06T04:53:21.924Z,8.93
2022-09-06T04:58:23.765Z,7.80
2022-09-06T05:03:25.458Z,8.82
2022-09-06T05:08:27.205Z,8.82
2022-09-06T05:13:29.196Z,8.75
2022-09-06T05:18:31.209Z,7.72
2022-09-06T05:23:33.070Z,6.28
2022-09-06T05:28:35.033Z,7.30
2022-09-06T05:33:37.388Z,7.13
2022-09-06T05:38:38.987Z,6.90
2022-09-06T05:43:40.565Z,7.03
2022-09-06T05:48:42.678Z,6.45
2022-09-06T05:53:45.788Z,6.70
2022-09-06T05:58:47.351Z,7.45
2022-09-06T06:04:03.782Z,6.35
2022-09-06T06:14:07.149Z,6.90
2022-09-06T06:19:08.744Z,6.97
2022-09-06T06:24:10.340Z,6.57
2022-09-06T06:29:11.890Z,6.65
2022-09-06T06:34:13.672Z,6.47
2022-09-06T06:39:15.431Z,6.40
2022-09-06T06:44:17.052Z,6.25
2022-09-06T06:49:18.688Z,5.50
2022-09-06T06:54:20.344Z,5.93
2022-09-06T06:59:21.911Z,6.60
2022-09-06T07:04:23.761Z,5.65
2022-09-06T07:09:26.083Z,5.20
2022-09-06T07:14:27.868Z,5.65
2022-09-06T07:24:51.676Z,6.00
2022-09-06T07:29:53.274Z,4.82
2022-09-06T07:34:54.863Z,4.65
2022-09-06T07:39:56.554Z,4.20
2022-09-06T07:44:58.239Z,4.75
2022-09-06T07:55:21.366Z,4.90
2022-09-06T08:00:23.004Z,4.50
2022-09-06T08:10:50.602Z,4.35
2022-09-06T08:16:00.655Z,4.30
2022-09-06T08:21:16.414Z,4.07
2022-09-06T08:26:21.050Z,4.70
2022-09-06T08:31:22.764Z,4.38
2022-09-06T08:36:30.078Z,4.32
2022-09-06T08:41:56.611Z,4.50
2022-09-06T08:47:11.871Z,3.90
2022-09-06T08:52:25.907Z,3.90
2022-09-06T08:57:35.016Z,4.45
2022-09-06T09:02:51.744Z,4.35
2022-09-06T09:08:00.268Z,5.72
2022-09-06T09:13:07.541Z,4.03
2022-09-06T09:18:09.139Z,4.30
2022-09-06T09:23:10.739Z,4.00
2022-09-06T09:28:24.794Z,3.80
2022-09-06T09:33:33.900Z,3.75
2022-09-06T09:38:44.451Z,4.53
2022-09-06T09:44:01.087Z,3.85
2022-09-06T09:49:29.784Z,3.80
2022-09-06T09:54:35.399Z,4.07
2022-09-06T09:59:37.257Z,3.90
2022-09-06T10:04:46.803Z,3.95
2022-09-06T10:09:57.035Z,3.95
2022-09-06T10:15:04.903Z,3.88
2022-09-06T10:20:11.478Z,3.55
2022-09-06T10:25:49.641Z,3.67
2022-09-06T10:31:05.504Z,3.30
2022-09-06T10:41:46.186Z,3.25
2022-09-06T10:46:55.532Z,3.33
2022-09-06T10:52:02.190Z,3.72
2022-09-06T11:08:47.078Z,3.30
2022-09-06T11:13:49.253Z,3.00
2022-09-06T11:19:02.049Z,3.35
2022-09-06T11:24:22.304Z,3.00
2022-09-06T11:29:27.097Z,3.10
2022-09-06T11:34:32.667Z,3.38
2022-09-06T11:44:59.668Z,2.70
2022-09-06T11:50:21.347Z,3.15
2022-09-06T11:55:39.111Z,2.75
2022-09-06T12:00:40.707Z,2.65
2022-09-06T12:06:15.934Z,3.45
2022-09-06T12:11:30.331Z,3.20
2022-09-06T12:16:57.093Z,2.80
2022-09-06T12:21:58.684Z,2.90
2022-09-06T12:27:12.715Z,2.92
2022-09-06T12:32:20.546Z,2.67
2022-09-06T12:37:50.331Z,2.33
2022-09-06T12:42:53.000Z,2.80
2022-09-06T12:48:09.966Z,2.92
2022-09-06T12:53:25.508Z,2.55
2022-09-06T12:58:30.419Z,2.58
2022-09-06T13:03:43.800Z,2.23
2022-09-06T13:08:57.352Z,2.20
2022-09-06T13:13:59.358Z,2.28
2022-09-06T13:19:15.565Z,2.50
2022-09-06T13:24:21.399Z,2.35
2022-09-06T13:34:29.086Z,1.33
2022-09-06T13:39:39.422Z,1.05
2022-09-06T13:44:41.144Z,2.00
2022-09-06T13:49:42.853Z,4.70
2022-09-06T13:54:44.718Z,3.25
2022-09-06T13:59:46.291Z,4.20
2022-09-06T14:04:48.498Z,4.32
2022-09-06T14:09:51.340Z,5.30
2022-09-06T14:14:56.211Z,6.80
2022-09-06T14:19:58.408Z,6.32
2022-09-06T14:25:00.733Z,6.60
2022-09-06T14:30:03.078Z,5.93
2022-09-06T14:35:06.289Z,6.97
2022-09-06T14:40:10.768Z,6.50
2022-09-06T14:45:12.492Z,4.45
2022-09-06T14:50:14.391Z,4.95
2022-09-06T14:55:16.358Z,4.47
2022-09-06T15:00:19.034Z,6.45
2022-09-06T15:05:20.755Z,6.07
2022-09-06T15:10:22.558Z,4.88
2022-09-06T15:15:24.798Z,5.22
2022-09-06T15:20:26.670Z,3.78
2022-09-06T15:25:28.476Z,3.20
2022-09-06T15:30:30.251Z,5.43
2022-09-06T15:35:33.562Z,5.15
2022-09-06T15:40:35.742Z,5.03
2022-09-06T15:45:49.430Z,5.22
2022-09-06T15:50:52.036Z,6.40
2022-09-06T15:55:59.203Z,7.97
2022-09-06T16:01:07.072Z,6.55
2022-09-06T16:06:28.337Z,9.40
2022-09-06T16:11:33.071Z,8.93
2022-09-06T16:16:36.092Z,9.68
2022-09-06T16:21:40.260Z,9.32
2022-09-06T16:26:46.453Z,10.80
2022-09-06T16:31:48.804Z,11.88
2022-09-06T16:36:50.712Z,11.32
2022-09-06T16:41:52.505Z,11.07
2022-09-06T16:46:57.179Z,13.55
2022-09-06T16:51:59.063Z,12.52
2022-09-06T16:57:01.761Z,13.18
2022-09-06T17:02:03.792Z,12.40
2022-09-06T17:07:05.695Z,13.32
2022-09-06T17:12:07.863Z,11.70
2022-09-06T17:17:10.110Z,12.90
2022-09-06T17:22:12.843Z,12.80
2022-09-06T17:27:14.607Z,13.38
2022-09-06T17:32:16.434Z,14.27
2022-09-06T17:37:18.249Z,14.63
2022-09-06T17:42:20.118Z,16.63
2022-09-06T17:47:21.866Z,15.73
2022-09-06T17:52:23.752Z,16.30
2022-09-06T17:57:25.626Z,17.35
2022-09-06T18:02:27.904Z,16.67
2022-09-06T18:07:29.953Z,17.13
2022-09-06T18:12:31.977Z,15.27
2022-09-06T18:17:34.207Z,16.02
2022-09-06T18:22:38.162Z,16.25
2022-09-06T18:27:40.334Z,18.70
2022-09-06T18:32:42.395Z,20.45
2022-09-06T18:37:44.175Z,18.33
2022-09-06T18:42:45.800Z,19.33
2022-09-06T18:47:48.161Z,20.90
2022-09-06T18:52:50.183Z,18.30
2022-09-06T18:57:51.897Z,21.20
2022-09-06T19:02:53.970Z,20.15
2022-09-06T19:07:55.896Z,20.83
2022-09-06T19:12:57.567Z,18.58
2022-09-06T19:18:03.079Z,19.42
2022-09-06T19:23:04.713Z,20.58
2022-09-06T19:28:06.366Z,20.85
2022-09-06T19:33:08.716Z,23.02
2022-09-06T19:38:10.484Z,22.30
2022-09-06T19:43:12.199Z,22.80
2022-09-06T19:48:13.798Z,23.65
2022-09-06T19:53:15.489Z,22.98
2022-09-06T19:58:17.256Z,21.92
2022-09-06T20:03:19.741Z,21.88
2022-09-06T20:08:21.354Z,23.15
2022-09-06T20:13:23.226Z,20.98
2022-09-06T20:18:25.773Z,19.70
2022-09-06T20:23:29.005Z,18.55
2022-09-06T20:28:31.151Z,22.05
2022-09-06T20:33:33.903Z,21.85
2022-09-06T20:38:39.105Z,22.33
2022-09-06T20:43:41.730Z,19.52
2022-09-06T20:48:45.325Z,22.08
2022-09-06T20:53:53.706Z,20.90
2022-09-06T20:58:59.461Z,21.98
2022-09-06T21:04:02.905Z,21.70
2022-09-06T21:09:06.383Z,18.63
2022-09-06T21:14:09.430Z,21.10
2022-09-06T21:19:12.023Z,22.85
2022-09-06T21:24:13.848Z,19.83
2022-09-06T21:29:15.592Z,22.90
2022-09-06T21:34:17.510Z,20.42
2022-09-06T21:39:19.191Z,22.35
2022-09-06T21:44:21.009Z,24.35
2022-09-06T21:49:22.735Z,22.00
2022-09-06T21:54:24.378Z,23.13
2022-09-06T21:59:26.075Z,27.73
2022-09-06T22:04:27.899Z,26.08
2022-09-06T22:09:29.561Z,26.00
2022-09-06T22:14:31.195Z,28.00
2022-09-06T22:19:32.861Z,24.33
2022-09-06T22:24:34.711Z,26.60
2022-09-06T22:29:36.328Z,30.02
2022-09-06T22:34:37.944Z,30.27
2022-09-06T22:39:39.556Z,30.70
2022-09-06T22:44:41.175Z,29.52
2022-09-06T22:49:42.816Z,29.27
2022-09-06T22:54:44.379Z,24.65
2022-09-06T22:59:46.007Z,26.88
2022-09-06T23:04:47.638Z,25.02
2022-09-06T23:09:49.397Z,25.27
2022-09-06T23:14:51.009Z,24.85
2022-09-06T23:19:52.570Z,23.70
2022-09-06T23:24:54.231Z,22.25
2022-09-06T23:29:55.914Z,18.67
2022-09-06T23:34:57.511Z,21.15
2022-09-06T23:39:59.143Z,22.58
2022-09-06T23:45:00.785Z,21.00
2022-09-06T23:50:03.144Z,21.33
2022-09-06T23:55:05.109Z,20.98
